San Antonio, Texas
Traffic Map
Current Weather Conditions
San Antonio, Texas
Broken Clouds
Broken Clouds
34°
Feels Like: 37°
Wind Chill: 34° Ceiling: 7500
Heat Index: 37° Visibility: 10mi
Dew Point: 21° Wind: 9mph
Humidity: 46% Direction: 90° (E)
Pressure: 29.94in Gusts: 0mph
Raw Report DataKSKF 301938Z AUTO 09008KT 10SM SCT055 BKN075 BKN190 34/21 A2994 RMK AO2 $
Traffic Incident Summary
Active as of:
Severity:
Category:
InformationThere was an issue retrieving the traffic information for this location. Please try a different location or try again shortly.
Advertisements
Track Severe Weather on mobile